sensor_id;sensor_type;location;lat;lon;timestamp;pressure;altitude;pressure_sealevel;temperature;humidity
9257;BME280;4665;51.368;6.782;2023-04-04T00:00:12;102633.50;;;0.58;100.00
9257;BME280;4665;51.368;6.782;2023-04-04T00:02:37;102639.75;;;0.54;100.00
9257;BME280;4665;51.368;6.782;2023-04-04T00:05:05;102638.94;;;0.52;100.00
9257;BME280;4665;51.368;6.782;2023-04-04T00:07:30;102636.34;;;0.50;100.00
9257;BME280;4665;51.368;6.782;2023-04-04T00:09:56;102631.19;;;0.47;100.00
9257;BME280;4665;51.368;6.782;2023-04-04T00:12:21;102636.47;;;0.46;100.00
9257;BME280;4665;51.368;6.782;2023-04-04T00:14:48;102639.97;;;0.46;100.00
9257;BME280;4665;51.368;6.782;2023-04-04T00:17:13;102644.34;;;0.46;100.00
9257;BME280;4665;51.368;6.782;2023-04-04T00:19:39;102637.44;;;0.43;100.00
9257;BME280;4665;51.368;6.782;2023-04-04T00:22:05;102640.19;;;0.38;100.00
9257;BME280;4665;51.368;6.782;2023-04-04T00:24:30;102639.38;;;0.36;100.00
9257;BME280;4665;51.368;6.782;2023-04-04T00:26:58;102640.34;;;0.32;100.00
9257;BME280;4665;51.368;6.782;2023-04-04T00:29:23;102634.31;;;0.30;100.00
9257;BME280;4665;51.368;6.782;2023-04-04T00:31:49;102649.16;;;0.30;100.00
9257;BME280;4665;51.368;6.782;2023-04-04T00:34:14;102638.75;;;0.28;100.00
9257;BME280;4665;51.368;6.782;2023-04-04T00:36:39;102640.56;;;0.25;100.00
9257;BME280;4665;51.368;6.782;2023-04-04T00:39:05;102642.38;;;0.23;100.00
9257;BME280;4665;51.368;6.782;2023-04-04T00:41:31;102636.44;;;0.16;100.00
9257;BME280;4665;51.368;6.782;2023-04-04T00:43:57;102646.16;;;0.12;100.00
9257;BME280;4665;51.368;6.782;2023-04-04T00:46:22;102643.66;;;0.08;100.00
9257;BME280;4665;51.368;6.782;2023-04-04T00:48:49;102636.78;;;0.04;100.00
9257;BME280;4665;51.368;6.782;2023-04-04T00:51:15;102641.19;;;0.02;100.00
9257;BME280;4665;51.368;6.782;2023-04-04T00:53:43;102642.16;;;-0.03;100.00
9257;BME280;4665;51.368;6.782;2023-04-04T00:56:09;102644.00;;;-0.05;100.00
9257;BME280;4665;51.368;6.782;2023-04-04T00:58:34;102645.03;;;-0.12;100.00
9257;BME280;4665;51.368;6.782;2023-04-04T01:01:00;102639.00;;;-0.14;100.00
9257;BME280;4665;51.368;6.782;2023-04-04T01:03:26;102636.41;;;-0.15;100.00
9257;BME280;4665;51.368;6.782;2023-04-04T01:05:53;102639.16;;;-0.20;100.00
9257;BME280;4665;51.368;6.782;2023-04-04T01:08:21;102638.25;;;-0.19;100.00
9257;BME280;4665;51.368;6.782;2023-04-04T01:10:47;102630.38;;;-0.19;100.00
9257;BME280;4665;51.368;6.782;2023-04-04T01:13:13;102626.88;;;-0.18;100.00
9257;BME280;4665;51.368;6.782;2023-04-04T01:15:40;102619.91;;;-0.19;100.00
9257;BME280;4665;51.368;6.782;2023-04-04T01:18:06;102618.19;;;-0.20;100.00
9257;BME280;4665;51.368;6.782;2023-04-04T01:20:36;102625.22;;;-0.22;100.00
9257;BME280;4665;51.368;6.782;2023-04-04T01:23:04;102619.28;;;-0.29;100.00
9257;BME280;4665;51.368;6.782;2023-04-04T01:25:31;102622.84;;;-0.31;100.00
9257;BME280;4665;51.368;6.782;2023-04-04T01:27:57;102625.47;;;-0.31;100.00
9257;BME280;4665;51.368;6.782;2023-04-04T01:30:30;102627.22;;;-0.32;100.00
9257;BME280;4665;51.368;6.782;2023-04-04T01:33:16;102620.19;;;-0.30;100.00
9257;BME280;4665;51.368;6.782;2023-04-04T01:41:31;102617.72;;;-0.36;100.00
9257;BME280;4665;51.368;6.782;2023-04-04T01:43:58;102610.81;;;-0.38;100.00
9257;BME280;4665;51.368;6.782;2023-04-04T01:46:23;102612.59;;;-0.40;100.00
9257;BME280;4665;51.368;6.782;2023-04-04T01:48:49;102613.53;;;-0.43;100.00
9257;BME280;4665;51.368;6.782;2023-04-04T01:51:14;102613.56;;;-0.45;100.00
9257;BME280;4665;51.368;6.782;2023-04-04T01:53:40;102608.41;;;-0.48;100.00
9257;BME280;4665;51.368;6.782;2023-04-04T01:56:05;102608.41;;;-0.46;100.00
9257;BME280;4665;51.368;6.782;2023-04-04T01:58:31;102603.22;;;-0.49;100.00
9257;BME280;4665;51.368;6.782;2023-04-04T02:00:56;102604.09;;;-0.49;100.00
9257;BME280;4665;51.368;6.782;2023-04-04T02:03:22;102595.53;;;-0.55;100.00
9257;BME280;4665;51.368;6.782;2023-04-04T02:05:47;102605.81;;;-0.49;100.00
9257;BME280;4665;51.368;6.782;2023-04-04T02:08:13;102602.34;;;-0.50;100.00
9257;BME280;4665;51.368;6.782;2023-04-04T02:10:39;102611.13;;;-0.51;100.00
9257;BME280;4665;51.368;6.782;2023-04-04T02:13:05;102613.78;;;-0.54;100.00
9257;BME280;4665;51.368;6.782;2023-04-04T02:15:32;102602.59;;;-0.59;100.00
9257;BME280;4665;51.368;6.782;2023-04-04T02:17:58;102609.56;;;-0.58;100.00
9257;BME280;4665;51.368;6.782;2023-04-04T02:20:24;102602.63;;;-0.60;100.00
9257;BME280;4665;51.368;6.782;2023-04-04T02:22:53;102614.75;;;-0.56;100.00
9257;BME280;4665;51.368;6.782;2023-04-04T02:25:23;102610.44;;;-0.59;100.00
9257;BME280;4665;51.368;6.782;2023-04-04T02:27:49;102608.72;;;-0.60;100.00
9257;BME280;4665;51.368;6.782;2023-04-04T02:30:14;102602.69;;;-0.62;100.00
9257;BME280;4665;51.368;6.782;2023-04-04T02:32:40;102606.16;;;-0.63;100.00
9257;BME280;4665;51.368;6.782;2023-04-04T02:35:06;102600.94;;;-0.63;100.00
9257;BME280;4665;51.368;6.782;2023-04-04T02:37:32;102608.03;;;-0.67;100.00
9257;BME280;4665;51.368;6.782;2023-04-04T02:39:57;102605.34;;;-0.65;100.00
9257;BME280;4665;51.368;6.782;2023-04-04T02:42:23;102596.72;;;-0.69;100.00
9257;BME280;4665;51.368;6.782;2023-04-04T02:44:48;102593.25;;;-0.69;100.00
9257;BME280;4665;51.368;6.782;2023-04-04T02:47:13;102598.50;;;-0.69;100.00
9257;BME280;4665;51.368;6.782;2023-04-04T02:49:39;102588.03;;;-0.69;100.00
9257;BME280;4665;51.368;6.782;2023-04-04T02:52:04;102591.47;;;-0.67;100.00
9257;BME280;4665;51.368;6.782;2023-04-04T02:54:30;102587.97;;;-0.68;100.00
9257;BME280;4665;51.368;6.782;2023-04-04T02:56:55;102585.41;;;-0.69;100.00
9257;BME280;4665;51.368;6.782;2023-04-04T02:59:21;102587.97;;;-0.68;100.00
9257;BME280;4665;51.368;6.782;2023-04-04T03:01:46;102587.94;;;-0.66;100.00
9257;BME280;4665;51.368;6.782;2023-04-04T03:04:14;102578.50;;;-0.73;100.00
9257;BME280;4665;51.368;6.782;2023-04-04T03:06:39;102595.00;;;-0.70;100.00
9257;BME280;4665;51.368;6.782;2023-04-04T03:09:05;102584.56;;;-0.71;100.00
9257;BME280;4665;51.368;6.782;2023-04-04T03:11:31;102591.50;;;-0.70;100.00
9257;BME280;4665;51.368;6.782;2023-04-04T03:13:56;102584.69;;;-0.76;100.00
9257;BME280;4665;51.368;6.782;2023-04-04T03:16:21;102596.00;;;-0.75;100.00
9257;BME280;4665;51.368;6.782;2023-04-04T03:18:47;102582.91;;;-0.75;100.00
9257;BME280;4665;51.368;6.782;2023-04-04T03:21:12;102582.91;;;-0.75;100.00
9257;BME280;4665;51.368;6.782;2023-04-04T03:23:38;102582.06;;;-0.76;100.00
9257;BME280;4665;51.368;6.782;2023-04-04T03:26:03;102582.91;;;-0.75;100.00
9257;BME280;4665;51.368;6.782;2023-04-04T03:28:28;102588.19;;;-0.77;100.00
9257;BME280;4665;51.368;6.782;2023-04-04T03:30:54;102588.28;;;-0.81;100.00
9257;BME280;4665;51.368;6.782;2023-04-04T03:33:20;102597.06;;;-0.82;100.00
9257;BME280;4665;51.368;6.782;2023-04-04T03:35:46;102591.91;;;-0.86;100.00
9257;BME280;4665;51.368;6.782;2023-04-04T03:38:19;102585.84;;;-0.88;100.00
9257;BME280;4665;51.368;6.782;2023-04-04T03:41:06;102578.88;;;-0.89;100.00
9257;BME280;4665;51.368;6.782;2023-04-04T03:43:31;102573.69;;;-0.90;100.00
9257;BME280;4665;51.368;6.782;2023-04-04T03:46:04;102578.88;;;-0.89;100.00
9257;BME280;4665;51.368;6.782;2023-04-04T03:48:30;102579.75;;;-0.88;100.00
9257;BME280;4665;51.368;6.782;2023-04-04T03:50:56;102572.75;;;-0.88;100.00
9257;BME280;4665;51.368;6.782;2023-04-04T03:53:22;102577.16;;;-0.88;100.00
9257;BME280;4665;51.368;6.782;2023-04-04T03:55:48;102576.25;;;-0.89;100.00
9257;BME280;4665;51.368;6.782;2023-04-04T03:58:13;102569.31;;;-0.90;100.00
9257;BME280;4665;51.368;6.782;2023-04-04T04:00:39;102573.63;;;-0.89;100.00
9257;BME280;4665;51.368;6.782;2023-04-04T04:03:04;102571.03;;;-0.89;100.00
9257;BME280;4665;51.368;6.782;2023-04-04T04:05:29;102565.84;;;-0.90;100.00
9257;BME280;4665;51.368;6.782;2023-04-04T04:07:55;102552.91;;;-0.96;100.00
9257;BME280;4665;51.368;6.782;2023-04-04T04:10:21;102558.06;;;-0.93;100.00
9257;BME280;4665;51.368;6.782;2023-04-04T04:12:46;102571.19;;;-0.95;100.00
9257;BME280;4665;51.368;6.782;2023-04-04T04:15:11;102569.53;;;-0.99;100.00
9257;BME280;4665;51.368;6.782;2023-04-04T04:17:40;102570.50;;;-1.03;100.00
9257;BME280;4665;51.368;6.782;2023-04-04T04:20:07;102567.97;;;-1.06;100.00
9257;BME280;4665;51.368;6.782;2023-04-04T04:22:33;102569.66;;;-1.05;100.00
9257;BME280;4665;51.368;6.782;2023-04-04T04:24:58;102561.94;;;-1.10;100.00
9257;BME280;4665;51.368;6.782;2023-04-04T04:27:24;102561.06;;;-1.10;100.00
9257;BME280;4665;51.368;6.782;2023-04-04T04:29:50;102567.16;;;-1.10;100.00
9257;BME280;4665;51.368;6.782;2023-04-04T04:32:16;102563.78;;;-1.13;100.00
9257;BME280;4665;51.368;6.782;2023-04-04T04:34:41;102569.13;;;-1.18;100.00
9257;BME280;4665;51.368;6.782;2023-04-04T04:37:07;102560.44;;;-1.20;100.00
9257;BME280;4665;51.368;6.782;2023-04-04T04:39:32;102561.38;;;-1.22;100.00
9257;BME280;4665;51.368;6.782;2023-04-04T04:41:58;102553.47;;;-1.21;100.00
9257;BME280;4665;51.368;6.782;2023-04-04T04:44:23;102558.69;;;-1.19;100.00
9257;BME280;4665;51.368;6.782;2023-04-04T04:46:48;102551.75;;;-1.22;100.00
9257;BME280;4665;51.368;6.782;2023-04-04T04:49:14;102564.84;;;-1.22;100.00
9257;BME280;4665;51.368;6.782;2023-04-04T04:51:39;102557.94;;;-1.24;100.00
9257;BME280;4665;51.368;6.782;2023-04-04T04:54:06;102559.63;;;-1.23;100.00
9257;BME280;4665;51.368;6.782;2023-04-04T04:56:32;102558.78;;;-1.24;100.00
9257;BME280;4665;51.368;6.782;2023-04-04T04:58:57;102561.41;;;-1.25;100.00
9257;BME280;4665;51.368;6.782;2023-04-04T05:01:22;102562.25;;;-1.23;100.00
9257;BME280;4665;51.368;6.782;2023-04-04T05:03:48;102563.16;;;-1.24;100.00
9257;BME280;4665;51.368;6.782;2023-04-04T05:06:14;102555.38;;;-1.28;100.00
9257;BME280;4665;51.368;6.782;2023-04-04T05:08:39;102557.09;;;-1.27;100.00
9257;BME280;4665;51.368;6.782;2023-04-04T05:11:05;102555.38;;;-1.28;100.00
9257;BME280;4665;51.368;6.782;2023-04-04T05:13:30;102567.59;;;-1.28;100.00
9257;BME280;4665;51.368;6.782;2023-04-04T05:15:56;102558.13;;;-1.32;100.00
9257;BME280;4665;51.368;6.782;2023-04-04T05:18:22;102567.63;;;-1.30;100.00
9257;BME280;4665;51.368;6.782;2023-04-04T05:20:55;102562.47;;;-1.33;100.00
9257;BME280;4665;51.368;6.782;2023-04-04T05:23:21;102566.06;;;-1.37;100.00
9257;BME280;4665;51.368;6.782;2023-04-04T05:25:50;102569.53;;;-1.36;100.00
9257;BME280;4665;51.368;6.782;2023-04-04T05:28:20;102574.69;;;-1.35;100.00
9257;BME280;4665;51.368;6.782;2023-04-04T05:30:46;102573.91;;;-1.37;100.00
9257;BME280;4665;51.368;6.782;2023-04-04T05:33:11;102580.03;;;-1.39;100.00
9257;BME280;4665;51.368;6.782;2023-04-04T05:35:36;102586.19;;;-1.42;100.00
9257;BME280;4665;51.368;6.782;2023-04-04T05:38:02;102585.41;;;-1.45;100.00
9257;BME280;4665;51.368;6.782;2023-04-04T05:40:28;102589.84;;;-1.49;100.00
9257;BME280;4665;51.368;6.782;2023-04-04T05:42:57;102587.22;;;-1.49;100.00
9257;BME280;4665;51.368;6.782;2023-04-04T05:45:23;102582.00;;;-1.49;100.00
9257;BME280;4665;51.368;6.782;2023-04-04T05:47:48;102583.72;;;-1.48;100.00
9257;BME280;4665;51.368;6.782;2023-04-04T05:50:14;102576.84;;;-1.52;100.00
9257;BME280;4665;51.368;6.782;2023-04-04T05:52:40;102583.75;;;-1.50;100.00
9257;BME280;4665;51.368;6.782;2023-04-04T05:55:05;102587.03;;;-1.40;100.00
9257;BME280;4665;51.368;6.782;2023-04-04T05:57:31;102590.41;;;-1.35;100.00
9257;BME280;4665;51.368;6.782;2023-04-04T05:59:57;102592.22;;;-1.37;100.00
9257;BME280;4665;51.368;6.782;2023-04-04T06:02:22;102595.63;;;-1.35;100.00
9257;BME280;4665;51.368;6.782;2023-04-04T06:04:48;102599.06;;;-1.33;100.00
9257;BME280;4665;51.368;6.782;2023-04-04T06:07:13;102602.50;;;-1.29;100.00
9257;BME280;4665;51.368;6.782;2023-04-04T06:09:39;102602.38;;;-1.23;100.00
9257;BME280;4665;51.368;6.782;2023-04-04T06:12:05;102612.63;;;-1.14;100.00
9257;BME280;4665;51.368;6.782;2023-04-04T06:14:31;102618.63;;;-1.10;100.00
9257;BME280;4665;51.368;6.782;2023-04-04T06:16:57;102613.28;;;-1.04;100.00
9257;BME280;4665;51.368;6.782;2023-04-04T06:19:22;102616.41;;;-0.90;100.00
9257;BME280;4665;51.368;6.782;2023-04-04T06:21:47;102623.94;;;-0.76;100.00
9257;BME280;4665;51.368;6.782;2023-04-04T06:24:13;102611.59;;;-0.69;100.00
9257;BME280;4665;51.368;6.782;2023-04-04T06:26:38;102632.00;;;-0.48;100.00
9257;BME280;4665;51.368;6.782;2023-04-04T06:29:03;102628.16;;;-0.34;100.00
9257;BME280;4665;51.368;6.782;2023-04-04T06:31:29;102627.69;;;-0.16;100.00
9257;BME280;4665;51.368;6.782;2023-04-04T06:33:54;102629.97;;;-0.04;100.00
9257;BME280;4665;51.368;6.782;2023-04-04T06:36:20;102634.00;;;0.10;100.00
9257;BME280;4665;51.368;6.782;2023-04-04T06:38:45;102639.63;;;0.27;100.00
9257;BME280;4665;51.368;6.782;2023-04-04T06:41:11;102642.81;;;0.38;100.00
9257;BME280;4665;51.368;6.782;2023-04-04T06:43:36;102652.91;;;0.52;100.00
9257;BME280;4665;51.368;6.782;2023-04-04T06:46:02;102645.69;;;0.60;100.00
9257;BME280;4665;51.368;6.782;2023-04-04T06:48:28;102647.00;;;0.75;100.00
9257;BME280;4665;51.368;6.782;2023-04-04T06:50:53;102638.81;;;0.86;100.00
9257;BME280;4665;51.368;6.782;2023-04-04T06:53:18;102645.44;;;0.98;100.00
9257;BME280;4665;51.368;6.782;2023-04-04T06:55:44;102634.41;;;1.15;100.00
9257;BME280;4665;51.368;6.782;2023-04-04T06:58:09;102644.63;;;1.24;100.00
9257;BME280;4665;51.368;6.782;2023-04-04T07:00:35;102633.78;;;1.35;100.00
9257;BME280;4665;51.368;6.782;2023-04-04T07:03:00;102635.97;;;1.49;100.00
9257;BME280;4665;51.368;6.782;2023-04-04T07:05:26;102636.59;;;1.55;100.00
9257;BME280;4665;51.368;6.782;2023-04-04T07:07:53;102641.34;;;1.71;100.00
9257;BME280;4665;51.368;6.782;2023-04-04T07:10:24;102636.47;;;1.85;100.00
9257;BME280;4665;51.368;6.782;2023-04-04T07:12:50;102637.88;;;1.95;100.00
9257;BME280;4665;51.368;6.782;2023-04-04T07:15:15;102642.81;;;2.04;100.00
9257;BME280;4665;51.368;6.782;2023-04-04T07:17:41;102646.78;;;2.16;100.00
9257;BME280;4665;51.368;6.782;2023-04-04T07:20:07;102641.25;;;2.24;100.00
9257;BME280;4665;51.368;6.782;2023-04-04T07:22:36;102648.81;;;2.33;100.00
9257;BME280;4665;51.368;6.782;2023-04-04T07:25:02;102637.94;;;2.42;100.00
9257;BME280;4665;51.368;6.782;2023-04-04T07:27:28;102635.69;;;2.55;100.00
9257;BME280;4665;51.368;6.782;2023-04-04T07:29:53;102630.63;;;2.74;100.00
9257;BME280;4665;51.368;6.782;2023-04-04T07:32:18;102631.75;;;2.90;100.00
9257;BME280;4665;51.368;6.782;2023-04-04T07:34:44;102638.16;;;3.05;100.00
9257;BME280;4665;51.368;6.782;2023-04-04T07:37:11;102634.56;;;3.08;100.00
9257;BME280;4665;51.368;6.782;2023-04-04T07:39:36;102638.78;;;3.12;100.00
9257;BME280;4665;51.368;6.782;2023-04-04T07:42:02;102630.88;;;3.12;100.00
9257;BME280;4665;51.368;6.782;2023-04-04T07:44:27;102629.78;;;3.17;100.00
9257;BME280;4665;51.368;6.782;2023-04-04T07:46:53;102627.47;;;3.32;100.00
9257;BME280;4665;51.368;6.782;2023-04-04T07:49:18;102625.13;;;3.46;100.00
9257;BME280;4665;51.368;6.782;2023-04-04T07:51:43;102623.09;;;3.53;100.00
9257;BME280;4665;51.368;6.782;2023-04-04T07:54:09;102614.03;;;3.58;100.00
9257;BME280;4665;51.368;6.782;2023-04-04T07:56:34;102622.31;;;3.71;100.00
9257;BME280;4665;51.368;6.782;2023-04-04T07:59:00;102617.34;;;3.84;100.00
9257;BME280;4665;51.368;6.782;2023-04-04T08:01:26;102608.25;;;3.91;100.00
9257;BME280;4665;51.368;6.782;2023-04-04T08:03:51;102617.81;;;3.94;100.00
9257;BME280;4665;51.368;6.782;2023-04-04T08:06:17;102616.22;;;4.10;100.00
9257;BME280;4665;51.368;6.782;2023-04-04T08:08:43;102624.31;;;4.26;100.00
9257;BME280;4665;51.368;6.782;2023-04-04T08:11:10;102619.47;;;4.36;100.00
9257;BME280;4665;51.368;6.782;2023-04-04T08:13:36;102618.97;;;4.47;100.00
9257;BME280;4665;51.368;6.782;2023-04-04T08:16:01;102617.50;;;4.41;100.00
9257;BME280;4665;51.368;6.782;2023-04-04T08:18:27;102620.34;;;4.55;100.00
9257;BME280;4665;51.368;6.782;2023-04-04T08:20:52;102616.41;;;4.64;99.72
9257;BME280;4665;51.368;6.782;2023-04-04T08:23:18;102630.75;;;4.77;100.00
9257;BME280;4665;51.368;6.782;2023-04-04T08:25:45;102625.63;;;4.93;90.93
9257;BME280;4665;51.368;6.782;2023-04-04T08:28:10;102630.00;;;5.12;86.95
9257;BME280;4665;51.368;6.782;2023-04-04T08:30:36;102619.00;;;5.21;83.63
9257;BME280;4665;51.368;6.782;2023-04-04T08:33:02;102627.53;;;5.09;84.91
9257;BME280;4665;51.368;6.782;2023-04-04T08:35:27;102624.16;;;5.05;83.71
9257;BME280;4665;51.368;6.782;2023-04-04T08:37:52;102624.66;;;5.13;93.71
9257;BME280;4665;51.368;6.782;2023-04-04T08:40:18;102623.06;;;5.28;86.81
9257;BME280;4665;51.368;6.782;2023-04-04T08:42:43;102618.72;;;5.27;94.16
9257;BME280;4665;51.368;6.782;2023-04-04T08:45:11;102617.69;;;5.30;88.72
9257;BME280;4665;51.368;6.782;2023-04-04T08:47:37;102615.28;;;5.42;77.46
9257;BME280;4665;51.368;6.782;2023-04-04T08:50:07;102622.69;;;5.53;71.63
9257;BME280;4665;51.368;6.782;2023-04-04T08:52:33;102626.09;;;5.73;74.01
9257;BME280;4665;51.368;6.782;2023-04-04T08:55:00;102615.44;;;5.91;74.09
9257;BME280;4665;51.368;6.782;2023-04-04T08:57:26;102621.31;;;5.98;66.91
9257;BME280;4665;51.368;6.782;2023-04-04T08:59:53;102619.50;;;6.16;67.69
9257;BME280;4665;51.368;6.782;2023-04-04T09:05:15;102620.38;;;6.32;63.10
9257;BME280;4665;51.368;6.782;2023-04-04T09:07:42;102616.28;;;6.43;62.79
9257;BME280;4665;51.368;6.782;2023-04-04T09:10:09;102619.38;;;6.51;60.16
9257;BME280;4665;51.368;6.782;2023-04-04T09:12:36;102619.84;;;6.59;65.38
9257;BME280;4665;51.368;6.782;2023-04-04T09:15:04;102612.50;;;6.64;63.85
9257;BME280;4665;51.368;6.782;2023-04-04T09:17:30;102612.38;;;6.66;61.77
9257;BME280;4665;51.368;6.782;2023-04-04T09:19:55;102609.34;;;6.73;63.21
9257;BME280;4665;51.368;6.782;2023-04-04T09:22:21;102605.41;;;6.65;69.29
9257;BME280;4665;51.368;6.782;2023-04-04T09:24:46;102607.44;;;6.60;64.94
9257;BME280;4665;51.368;6.782;2023-04-04T09:27:14;102606.06;;;6.52;66.44
9257;BME280;4665;51.368;6.782;2023-04-04T09:29:40;102600.03;;;6.66;64.45
9257;BME280;4665;51.368;6.782;2023-04-04T09:32:13;102598.03;;;6.54;64.68
9257;BME280;4665;51.368;6.782;2023-04-04T09:34:40;102591.72;;;6.41;69.57
9257;BME280;4665;51.368;6.782;2023-04-04T09:37:06;102599.25;;;6.64;69.05
9257;BME280;4665;51.368;6.782;2023-04-04T09:39:32;102596.94;;;6.74;64.16
9257;BME280;4665;51.368;6.782;2023-04-04T09:41:59;102594.28;;;6.74;65.83
9257;BME280;4665;51.368;6.782;2023-04-04T09:44:25;102583.44;;;6.79;65.65
9257;BME280;4665;51.368;6.782;2023-04-04T09:46:52;102588.81;;;6.77;67.43
9257;BME280;4665;51.368;6.782;2023-04-04T09:49:18;102597.47;;;6.97;63.91
9257;BME280;4665;51.368;6.782;2023-04-04T09:51:52;102584.59;;;7.05;61.24
9257;BME280;4665;51.368;6.782;2023-04-04T09:54:22;102587.94;;;7.08;59.55
9257;BME280;4665;51.368;6.782;2023-04-04T09:56:49;102587.09;;;7.08;60.91
9257;BME280;4665;51.368;6.782;2023-04-04T09:59:18;102590.94;;;7.02;59.12
9257;BME280;4665;51.368;6.782;2023-04-04T10:01:44;102592.41;;;7.08;59.48
9257;BME280;4665;51.368;6.782;2023-04-04T10:04:10;102587.69;;;7.13;61.48
9257;BME280;4665;51.368;6.782;2023-04-04T10:06:36;102586.75;;;6.98;59.56
9257;BME280;4665;51.368;6.782;2023-04-04T10:09:01;102586.22;;;7.07;64.21
9257;BME280;4665;51.368;6.782;2023-04-04T10:11:31;102580.97;;;7.22;55.35
9257;BME280;4665;51.368;6.782;2023-04-04T10:13:58;102591.16;;;7.29;56.05
9257;BME280;4665;51.368;6.782;2023-04-04T10:16:24;102579.88;;;7.26;59.20
9257;BME280;4665;51.368;6.782;2023-04-04T10:18:51;102584.41;;;7.24;60.02
9257;BME280;4665;51.368;6.782;2023-04-04T10:21:16;102571.38;;;7.35;58.69
9257;BME280;4665;51.368;6.782;2023-04-04T10:23:44;102575.91;;;7.33;58.00
9257;BME280;4665;51.368;6.782;2023-04-04T10:26:11;102557.75;;;7.41;58.26
9257;BME280;4665;51.368;6.782;2023-04-04T10:28:37;102566.59;;;7.56;52.32
9257;BME280;4665;51.368;6.782;2023-04-04T10:31:15;102562.91;;;7.58;58.02
9257;BME280;4665;51.368;6.782;2023-04-04T10:33:55;102561.41;;;7.54;57.90
9257;BME280;4665;51.368;6.782;2023-04-04T10:36:29;102561.84;;;7.47;53.59
9257;BME280;4665;51.368;6.782;2023-04-04T10:39:13;102564.41;;;7.48;56.97
9257;BME280;4665;51.368;6.782;2023-04-04T10:41:40;102558.84;;;7.53;55.24
9257;BME280;4665;51.368;6.782;2023-04-04T10:44:17;102570.00;;;7.58;52.72
9257;BME280;4665;51.368;6.782;2023-04-04T10:46:46;102561.22;;;7.72;53.37
9257;BME280;4665;51.368;6.782;2023-04-04T10:49:14;102552.44;;;7.86;53.78
9257;BME280;4665;51.368;6.782;2023-04-04T10:51:40;102544.66;;;7.83;52.01
9257;BME280;4665;51.368;6.782;2023-04-04T10:54:06;102547.88;;;7.88;52.87
9257;BME280;4665;51.368;6.782;2023-04-04T10:56:32;102537.84;;;7.93;52.90
9257;BME280;4665;51.368;6.782;2023-04-04T10:59:16;102531.69;;;7.92;53.25
9257;BME280;4665;51.368;6.782;2023-04-04T11:01:56;102535.94;;;7.66;52.44
9257;BME280;4665;51.368;6.782;2023-04-04T11:04:30;102526.25;;;7.51;50.63
9257;BME280;4665;51.368;6.782;2023-04-04T11:07:16;102527.97;;;7.66;55.63
9257;BME280;4665;51.368;6.782;2023-04-04T11:12:12;102524.28;;;7.69;51.85
9257;BME280;4665;51.368;6.782;2023-04-04T11:15:05;102518.56;;;7.75;52.88
9257;BME280;4665;51.368;6.782;2023-04-04T11:20:18;102504.00;;;7.82;52.49
9257;BME280;4665;51.368;6.782;2023-04-04T11:22:44;102508.56;;;7.94;51.99
9257;BME280;4665;51.368;6.782;2023-04-04T11:27:57;102504.19;;;7.93;49.44
9257;BME280;4665;51.368;6.782;2023-04-04T11:30:26;102506.53;;;7.98;52.87
9257;BME280;4665;51.368;6.782;2023-04-04T11:32:56;102507.50;;;7.97;47.92
9257;BME280;4665;51.368;6.782;2023-04-04T11:35:22;102499.34;;;8.00;48.80
9257;BME280;4665;51.368;6.782;2023-04-04T11:40:18;102491.66;;;8.10;53.13
9257;BME280;4665;51.368;6.782;2023-04-04T11:42:43;102499.63;;;8.24;52.40
9257;BME280;4665;51.368;6.782;2023-04-04T11:45:17;102496.84;;;8.26;51.07
9257;BME280;4665;51.368;6.782;2023-04-04T11:47:46;102497.03;;;8.37;53.48
9257;BME280;4665;51.368;6.782;2023-04-04T11:50:13;102488.41;;;8.33;48.90
9257;BME280;4665;51.368;6.782;2023-04-04T11:52:40;102490.09;;;8.34;51.83
9257;BME280;4665;51.368;6.782;2023-04-04T11:55:17;102490.78;;;8.38;48.46
9257;BME280;4665;51.368;6.782;2023-04-04T11:57:45;102484.31;;;8.42;46.79
9257;BME280;4665;51.368;6.782;2023-04-04T12:00:27;102481.72;;;8.55;50.11
9257;BME280;4665;51.368;6.782;2023-04-04T12:02:54;102481.13;;;8.64;48.30
9257;BME280;4665;51.368;6.782;2023-04-04T12:05:19;102472.09;;;8.67;50.69
9257;BME280;4665;51.368;6.782;2023-04-04T12:07:46;102477.34;;;8.81;51.48
9257;BME280;4665;51.368;6.782;2023-04-04T12:10:12;102468.94;;;8.74;47.55
9257;BME280;4665;51.368;6.782;2023-04-04T12:12:38;102475.22;;;8.73;49.12
9257;BME280;4665;51.368;6.782;2023-04-04T12:15:05;102471.81;;;8.84;48.60
9257;BME280;4665;51.368;6.782;2023-04-04T12:17:32;102468.06;;;9.01;50.26
9257;BME280;4665;51.368;6.782;2023-04-04T12:19:58;102473.59;;;9.11;48.63
9257;BME280;4665;51.368;6.782;2023-04-04T12:22:24;102463.59;;;9.01;46.50
9257;BME280;4665;51.368;6.782;2023-04-04T12:24:49;102459.78;;;9.05;46.19
9257;BME280;4665;51.368;6.782;2023-04-04T12:27:14;102465.63;;;9.11;47.45
9257;BME280;4665;51.368;6.782;2023-04-04T12:29:40;102449.63;;;8.98;46.70
9257;BME280;4665;51.368;6.782;2023-04-04T12:32:07;102443.38;;;8.99;47.17
9257;BME280;4665;51.368;6.782;2023-04-04T12:34:41;102444.66;;;9.06;49.65
9257;BME280;4665;51.368;6.782;2023-04-04T12:37:08;102441.69;;;9.23;49.26
9257;BME280;4665;51.368;6.782;2023-04-04T12:39:39;102426.16;;;9.30;46.08
9257;BME280;4665;51.368;6.782;2023-04-04T12:42:04;102427.56;;;9.36;48.15
9257;BME280;4665;51.368;6.782;2023-04-04T12:44:33;102424.91;;;9.36;45.38
9257;BME280;4665;51.368;6.782;2023-04-04T12:47:00;102413.63;;;9.32;46.01
9257;BME280;4665;51.368;6.782;2023-04-04T12:49:44;102410.88;;;9.34;47.30
9257;BME280;4665;51.368;6.782;2023-04-04T12:52:17;102420.00;;;9.30;45.17
9257;BME280;4665;51.368;6.782;2023-04-04T12:54:45;102413.53;;;9.34;47.29
9257;BME280;4665;51.368;6.782;2023-04-04T12:57:11;102407.25;;;9.47;46.65
9257;BME280;4665;51.368;6.782;2023-04-04T12:59:44;102410.41;;;9.40;44.89
9257;BME280;4665;51.368;6.782;2023-04-04T13:02:13;102410.63;;;9.37;45.86
9257;BME280;4665;51.368;6.782;2023-04-04T13:04:39;102399.78;;;9.40;47.29
9257;BME280;4665;51.368;6.782;2023-04-04T13:07:29;102396.59;;;9.47;47.69
9257;BME280;4665;51.368;6.782;2023-04-04T13:09:59;102389.69;;;9.45;45.82
9257;BME280;4665;51.368;6.782;2023-04-04T13:12:25;102387.78;;;9.47;46.17
9257;BME280;4665;51.368;6.782;2023-04-04T13:15:02;102383.41;;;9.46;47.07
9257;BME280;4665;51.368;6.782;2023-04-04T13:17:45;102381.06;;;9.54;45.67
9257;BME280;4665;51.368;6.782;2023-04-04T13:20:13;102369.09;;;9.73;48.47
9257;BME280;4665;51.368;6.782;2023-04-04T13:22:39;102368.81;;;9.88;47.87
9257;BME280;4665;51.368;6.782;2023-04-04T13:25:06;102368.94;;;9.87;43.21
9257;BME280;4665;51.368;6.782;2023-04-04T13:27:32;102362.88;;;9.85;43.00